Time;durP1;ratioP1;P1;durP2;ratioP2;P2;SDS_P1;SDS_P2;PMS_P1;PMS_P2;Temp;Humidity;BMP_temperature;BMP_pressure;BME280_temperature;BME280_humidity;BME280_pressure;Samples;Min_cycle;Max_cycle;Signal;HPM_P1;HPM_P2
2022/08/30 00:02:25;;;;;;;;;;;;;;;;;;5054724;28;19925;-73
2022/08/30 00:04:50;;;;;;;;;;;;;;;;;;5037795;28;20372;-73
2022/08/30 00:07:15;;;;;;;;;;;;;;;;;;5054813;28;20406;-73
2022/08/30 00:09:43;;;;;;;;;;;;;;;;;;5055146;28;19981;-72
2022/08/30 00:12:09;;;;;;;;;;;;;;;;;;5053765;28;19995;-75
2022/08/30 00:14:34;;;;;;;;;;;;;;;;;;5054515;28;19917;-73
2022/08/30 00:16:59;;;;;;;;;;;;;;;;;;5037087;28;20337;-74
2022/08/30 00:19:25;;;;;;;;;;;;;;;;;;5036885;28;20315;-74
2022/08/30 00:21:50;;;;;;;;;;;;;;;;;;5036952;28;20152;-75
2022/08/30 00:24:15;;;;;;;;;;;;;;;;;;5036602;28;19917;-74
2022/08/30 00:26:41;;;;;;;;;;;;;;;;;;5020128;28;19912;-75
2022/08/30 00:29:06;;;;;;;;;;;;;;;;;;5037119;28;19966;-73
2022/08/30 00:31:32;;;;;;;;;;;;;;;;;;5020101;28;19913;-74
2022/08/30 00:33:57;;;;;;;;;;;;;;;;;;5020110;28;19996;-74
2022/08/30 00:36:22;;;;;;;;;;;;;;;;;;5036253;28;19966;-74
2022/08/30 00:38:48;;;;;;;;;;;;;;;;;;5054466;28;19966;-74
2022/08/30 00:41:13;;;;;;;;;;;;;;;;;;5054215;28;20371;-73
2022/08/30 00:43:38;;;;;;;;;;;;;;;;;;5054030;28;19924;-76
2022/08/30 00:46:06;;;;;;;;;;;;;;;;;;5036031;28;19920;-73
2022/08/30 00:48:31;;;;;;;;;;;;;;;;;;5054625;28;19917;-75
2022/08/30 00:50:57;;;;;;;;;;;;;;;;;;5036641;28;19913;-74
2022/08/30 00:53:22;;;;;;;;;;;;;;;;;;5053967;28;19912;-73
2022/08/30 00:55:48;;;;;;;;;;;;;;;;;;5053820;28;19924;-73
2022/08/30 00:58:14;;;;;;;;;;;;;;;;;;5055005;28;19919;-75
2022/08/30 01:00:40;;;;;;;;;;;;;;;;;;5035321;28;19920;-73
2022/08/30 01:03:08;;;;;;;;;;;;;;;;;;5035225;28;19921;-75
2022/08/30 01:05:33;;;;;;;;;;;;;;;;;;5035946;28;19959;-74
2022/08/30 01:07:58;;;;;;;;;;;;;;;;;;5053619;28;19967;-75
2022/08/30 01:10:24;;;;;;;;;;;;;;;;;;5054287;28;20007;-75
2022/08/30 01:12:49;;;;;;;;;;;;;;;;;;5053360;28;19963;-73
2022/08/30 01:15:14;;;;;;;;;;;;;;;;;;5053289;28;19916;-74
2022/08/30 01:17:40;;;;;;;;;;;;;;;;;;5035526;28;19912;-74
2022/08/30 01:20:05;;;;;;;;;;;;;;;;;;5054203;28;19920;-74
2022/08/30 01:22:31;;;;;;;;;;;;;;;;;;5053342;28;20007;-74
2022/08/30 01:24:56;;;;;;;;;;;;;;;;;;5053343;28;19948;-75
2022/08/30 01:27:21;;;;;;;;;;;;;;;;;;5035577;28;19916;-73
2022/08/30 01:29:47;;;;;;;;;;;;;;;;;;5054138;28;19955;-75
2022/08/30 01:32:12;;;;;;;;;;;;;;;;;;5052238;28;20372;-73
2022/08/30 01:34:38;;;;;;;;;;;;;;;;;;5051699;28;20439;-75
2022/08/30 01:37:04;;;;;;;;;;;;;;;;;;5035283;28;20372;-74
2022/08/30 01:39:29;;;;;;;;;;;;;;;;;;5051926;28;20400;-75
2022/08/30 01:41:55;;;;;;;;;;;;;;;;;;5035729;28;20280;-76
2022/08/30 01:44:20;;;;;;;;;;;;;;;;;;5018402;28;19924;-76
2022/08/30 01:46:46;;;;;;;;;;;;;;;;;;5052910;28;20476;-75
2022/08/30 01:49:11;;;;;;;;;;;;;;;;;;5052939;28;20392;-75
2022/08/30 01:51:36;;;;;;;;;;;;;;;;;;5034896;28;20273;-76
2022/08/30 01:54:02;;;;;;;;;;;;;;;;;;5035258;28;19913;-75
2022/08/30 01:56:27;;;;;;;;;;;;;;;;;;5052721;28;19961;-76
2022/08/30 01:58:52;;;;;;;;;;;;;;;;;;5051490;28;19913;-76
2022/08/30 02:01:18;;;;;;;;;;;;;;;;;;5034802;28;19959;-76
2022/08/30 02:03:43;;;;;;;;;;;;;;;;;;5053182;28;19924;-76
2022/08/30 02:06:09;;;;;;;;;;;;;;;;;;5052407;28;20516;-76
2022/08/30 02:08:34;;;;;;;;;;;;;;;;;;5055835;28;19916;-74
2022/08/30 02:10:59;;;;;;;;;;;;;;;;;;5051278;28;19921;-75
2022/08/30 02:13:25;;;;;;;;;;;;;;;;;;5052217;28;19971;-75
2022/08/30 02:15:50;;;;;;;;;;;;;;;;;;5052265;28;19916;-77
2022/08/30 02:18:15;;;;;;;;;;;;;;;;;;5052749;28;19912;-74
2022/08/30 02:20:41;;;;;;;;;;;;;;;;;;5034914;28;20447;-76
2022/08/30 02:23:06;;;;;;;;;;;;;;;;;;5034806;28;19963;-74
2022/08/30 02:25:32;;;;;;;;;;;;;;;;;;5052127;28;19988;-76
2022/08/30 02:27:57;;;;;;;;;;;;;;;;;;5053785;28;20368;-75
2022/08/30 02:30:22;;;;;;;;;;;;;;;;;;5055510;28;20380;-77
2022/08/30 02:32:48;;;;;;;;;;;;;;;;;;5018481;28;19935;-76
2022/08/30 02:35:13;;;;;;;;;;;;;;;;;;5052933;28;19959;-76
2022/08/30 02:37:38;;;;;;;;;;;;;;;;;;5034416;28;20402;-76
2022/08/30 02:40:06;;;;;;;;;;;;;;;;;;5051048;28;20439;-76
2022/08/30 02:42:31;;;;;;;;;;;;;;;;;;5051894;28;19909;-75
2022/08/30 02:44:56;;;;;;;;;;;;;;;;;;5034471;28;19934;-76
2022/08/30 02:47:22;;;;;;;;;;;;;;;;;;5052053;28;19912;-75
2022/08/30 02:49:47;;;;;;;;;;;;;;;;;;5034163;28;19912;-74
2022/08/30 02:52:13;;;;;;;;;;;;;;;;;;5051954;28;19913;-76
2022/08/30 02:54:38;;;;;;;;;;;;;;;;;;5035394;28;19952;-76
2022/08/30 02:57:05;;;;;;;;;;;;;;;;;;5017469;28;19924;-75
2022/08/30 02:59:30;;;;;;;;;;;;;;;;;;5051982;28;19913;-74
2022/08/30 03:01:56;;;;;;;;;;;;;;;;;;5051923;28;19984;-76
2022/08/30 03:04:22;;;;;;;;;;;;;;;;;;5047150;28;19917;-76
2022/08/30 03:06:47;;;;;;;;;;;;;;;;;;5072603;28;19916;-74
2022/08/30 03:09:13;;;;;;;;;;;;;;;;;;5071858;28;20034;-76
2022/08/30 03:11:38;;;;;;;;;;;;;;;;;;5037704;28;20007;-75
2022/08/30 03:14:04;;;;;;;;;;;;;;;;;;5053765;28;20442;-75
2022/08/30 03:16:29;;;;;;;;;;;;;;;;;;5072234;28;20325;-75
2022/08/30 03:18:55;;;;;;;;;;;;;;;;;;5072476;28;19917;-75
2022/08/30 03:21:20;;;;;;;;;;;;;;;;;;5054017;28;19963;-75
2022/08/30 03:23:45;;;;;;;;;;;;;;;;;;5053866;28;20347;-75
2022/08/30 03:26:13;;;;;;;;;;;;;;;;;;5057357;28;20337;-74
2022/08/30 03:28:38;;;;;;;;;;;;;;;;;;5077180;28;19919;-74
2022/08/30 03:31:04;;;;;;;;;;;;;;;;;;5075955;28;20326;-75
2022/08/30 03:33:29;;;;;;;;;;;;;;;;;;5041418;28;20264;-73
2022/08/30 03:35:55;;;;;;;;;;;;;;;;;;5075914;28;19924;-74
2022/08/30 03:38:20;;;;;;;;;;;;;;;;;;5075499;28;19912;-74
2022/08/30 03:40:45;;;;;;;;;;;;;;;;;;5077198;28;20360;-76
2022/08/30 03:43:11;;;;;;;;;;;;;;;;;;5075032;28;20372;-76
2022/08/30 03:45:36;;;;;;;;;;;;;;;;;;5075184;28;20444;-76
2022/08/30 03:48:01;;;;;;;;;;;;;;;;;;5075153;28;20375;-74
2022/08/30 03:50:27;;;;;;;;;;;;;;;;;;5075200;28;20407;-76
2022/08/30 03:52:52;;;;;;;;;;;;;;;;;;5075297;28;20018;-74
2022/08/30 03:55:18;;;;;;;;;;;;;;;;;;5057295;28;19913;-74
2022/08/30 03:57:43;;;;;;;;;;;;;;;;;;5040651;28;19912;-75
2022/08/30 04:00:09;;;;;;;;;;;;;;;;;;5057036;28;19916;-76
2022/08/30 04:02:37;;;;;;;;;;;;;;;;;;5057471;28;20351;-76
2022/08/30 04:05:03;;;;;;;;;;;;;;;;;;5056605;28;19979;-76
2022/08/30 04:07:28;;;;;;;;;;;;;;;;;;5084303;22;19924;-76
2022/08/30 04:09:53;;;;;;;;;;;;;;;;;;5074838;28;19920;-76
2022/08/30 04:12:19;;;;;;;;;;;;;;;;;;5074597;28;19920;-77
2022/08/30 04:14:44;;;;;;;;;;;;;;;;;;5074421;28;19912;-77
2022/08/30 04:17:09;;;;;;;;;;;;;;;;;;5074514;28;19959;-76
2022/08/30 04:19:35;;;;;;;;;;;;;;;;;;5039896;28;19920;-75
2022/08/30 04:22:00;;;;;;;;;;;;;;;;;;5056706;28;20371;-77
2022/08/30 04:24:26;;;;;;;;;;;;;;;;;;5056133;28;20345;-76
2022/08/30 04:26:51;;;;;;;;;;;;;;;;;;5056280;28;19920;-76
2022/08/30 04:29:17;;;;;;;;;;;;;;;;;;5056214;28;20431;-75
2022/08/30 04:31:42;;;;;;;;;;;;;;;;;;5056275;28;19919;-76
2022/08/30 04:34:07;;;;;;;;;;;;;;;;;;5056120;28;19978;-75
2022/08/30 04:36:33;;;;;;;;;;;;;;;;;;5056169;28;20398;-76
2022/08/30 04:38:58;;;;;;;;;;;;;;;;;;5056007;28;20379;-77
2022/08/30 04:41:23;;;;;;;;;;;;;;;;;;5039536;28;20280;-76
2022/08/30 04:43:49;;;;;;;;;;;;;;;;;;5073543;28;19998;-76
2022/08/30 04:46:14;;;;;;;;;;;;;;;;;;5073648;28;19920;-75
2022/08/30 04:48:40;;;;;;;;;;;;;;;;;;5055571;28;19919;-75
2022/08/30 04:51:05;;;;;;;;;;;;;;;;;;5055911;28;20007;-75
2022/08/30 04:53:31;;;;;;;;;;;;;;;;;;5073156;28;19944;-76
2022/08/30 04:55:56;;;;;;;;;;;;;;;;;;5073407;28;20395;-76
2022/08/30 04:58:22;;;;;;;;;;;;;;;;;;5073493;28;19917;-77
2022/08/30 05:00:47;;;;;;;;;;;;;;;;;;5073252;28;19919;-74
2022/08/30 05:03:12;;;;;;;;;;;;;;;;;;5068842;28;19916;-75
2022/08/30 05:05:38;;;;;;;;;;;;;;;;;;5053331;28;20415;-76
2022/08/30 05:08:03;;;;;;;;;;;;;;;;;;5053104;28;19924;-75
2022/08/30 05:10:29;;;;;;;;;;;;;;;;;;5018362;28;20354;-75
2022/08/30 05:12:54;;;;;;;;;;;;;;;;;;5052895;28;19912;-77
2022/08/30 05:15:21;;;;;;;;;;;;;;;;;;5035143;28;19913;-77
2022/08/30 05:17:46;;;;;;;;;;;;;;;;;;5052609;28;19916;-76
2022/08/30 05:20:12;;;;;;;;;;;;;;;;;;5035082;28;19908;-75
2022/08/30 05:22:37;;;;;;;;;;;;;;;;;;5052785;28;20015;-76
2022/08/30 05:25:03;;;;;;;;;;;;;;;;;;5052651;28;19913;-75
2022/08/30 05:27:29;;;;;;;;;;;;;;;;;;5034858;28;20011;-75
2022/08/30 05:29:54;;;;;;;;;;;;;;;;;;5034844;28;20491;-76
2022/08/30 05:32:19;;;;;;;;;;;;;;;;;;5034626;28;20280;-75
2022/08/30 05:34:45;;;;;;;;;;;;;;;;;;5034472;28;19912;-76
2022/08/30 05:37:10;;;;;;;;;;;;;;;;;;5034384;28;19913;-77
2022/08/30 05:39:35;;;;;;;;;;;;;;;;;;5052313;28;20376;-77
2022/08/30 05:42:01;;;;;;;;;;;;;;;;;;5052287;28;19913;-75
2022/08/30 05:44:26;;;;;;;;;;;;;;;;;;5052370;28;20294;-77
2022/08/30 05:46:51;;;;;;;;;;;;;;;;;;5017625;28;19919;-77
2022/08/30 05:49:17;;;;;;;;;;;;;;;;;;5051777;28;19912;-76
2022/08/30 05:51:42;;;;;;;;;;;;;;;;;;5034505;28;19963;-76
2022/08/30 05:54:07;;;;;;;;;;;;;;;;;;5001692;28;19917;-76
2022/08/30 05:56:33;;;;;;;;;;;;;;;;;;5052351;28;19913;-76
2022/08/30 05:58:58;;;;;;;;;;;;;;;;;;5033886;28;20337;-76
2022/08/30 06:01:23;;;;;;;;;;;;;;;;;;5052528;28;20339;-75
2022/08/30 06:03:49;;;;;;;;;;;;;;;;;;5051588;28;20023;-76
2022/08/30 06:06:14;;;;;;;;;;;;;;;;;;5018048;28;19913;-76
2022/08/30 06:08:41;;;;;;;;;;;;;;;;;;5034783;28;19917;-76
2022/08/30 06:11:06;;;;;;;;;;;;;;;;;;5052052;28;19958;-76
2022/08/30 06:13:31;;;;;;;;;;;;;;;;;;5033930;28;19995;-76
2022/08/30 06:15:57;;;;;;;;;;;;;;;;;;5051811;28;20388;-76
2022/08/30 06:18:22;;;;;;;;;;;;;;;;;;5051789;28;20343;-76
2022/08/30 06:20:50;;;;;;;;;;;;;;;;;;5051776;28;20447;-76
2022/08/30 06:23:16;;;;;;;;;;;;;;;;;;5033912;28;19921;-77
2022/08/30 06:25:41;;;;;;;;;;;;;;;;;;5017567;28;20307;-76
2022/08/30 06:28:07;;;;;;;;;;;;;;;;;;5051799;28;20015;-76
2022/08/30 06:30:32;;;;;;;;;;;;;;;;;;5017803;28;19913;-75
2022/08/30 06:32:57;;;;;;;;;;;;;;;;;;5033889;28;20418;-76
2022/08/30 06:35:23;;;;;;;;;;;;;;;;;;5034009;28;20376;-76
2022/08/30 06:37:48;;;;;;;;;;;;;;;;;;5051808;28;19913;-76
2022/08/30 06:40:16;;;;;;;;;;;;;;;;;;5034206;28;19913;-80
2022/08/30 06:42:42;;;;;;;;;;;;;;;;;;5051588;28;19913;-80
2022/08/30 06:45:08;;;;;;;;;;;;;;;;;;5033762;28;20516;-81
2022/08/30 06:47:33;;;;;;;;;;;;;;;;;;5051782;28;19913;-82
2022/08/30 06:49:58;;;;;;;;;;;;;;;;;;5051967;28;19966;-84
2022/08/30 06:52:24;;;;;;;;;;;;;;;;;;5052088;28;19999;-84
2022/08/30 06:54:49;;;;;;;;;;;;;;;;;;5051973;28;19967;-78
2022/08/30 06:57:15;;;;;;;;;;;;;;;;;;5051727;28;20009;-81
2022/08/30 06:59:40;;;;;;;;;;;;;;;;;;5035103;28;19912;-80
2022/08/30 07:02:05;;;;;;;;;;;;;;;;;;5038478;28;19919;-81
2022/08/30 07:04:31;;;;;;;;;;;;;;;;;;5055701;28;19916;-79
2022/08/30 07:06:56;;;;;;;;;;;;;;;;;;5055783;28;20433;-80
2022/08/30 07:09:21;;;;;;;;;;;;;;;;;;5055903;28;20380;-80
2022/08/30 07:11:47;;;;;;;;;;;;;;;;;;5038144;28;20437;-82
2022/08/30 07:14:12;;;;;;;;;;;;;;;;;;5021422;28;20430;-81
2022/08/30 07:16:37;;;;;;;;;;;;;;;;;;5055881;28;20008;-80
2022/08/30 07:19:03;;;;;;;;;;;;;;;;;;5021221;28;19928;-77
2022/08/30 07:21:28;;;;;;;;;;;;;;;;;;5055319;28;19913;-79
2022/08/30 07:23:54;;;;;;;;;;;;;;;;;;5055242;28;19916;-80
2022/08/30 07:26:19;;;;;;;;;;;;;;;;;;5055286;28;19920;-80
2022/08/30 07:28:44;;;;;;;;;;;;;;;;;;5037484;28;19952;-81
2022/08/30 07:31:10;;;;;;;;;;;;;;;;;;5055359;28;19913;-78
2022/08/30 07:33:35;;;;;;;;;;;;;;;;;;5055230;28;20399;-80
2022/08/30 07:36:00;;;;;;;;;;;;;;;;;;5037503;28;20406;-78
2022/08/30 07:38:26;;;;;;;;;;;;;;;;;;5055426;28;19913;-80
2022/08/30 07:40:51;;;;;;;;;;;;;;;;;;5037630;28;19913;-79
2022/08/30 07:43:17;;;;;;;;;;;;;;;;;;5037061;28;19924;-78
2022/08/30 07:45:42;;;;;;;;;;;;;;;;;;5055243;28;19913;-81
2022/08/30 07:48:10;;;;;;;;;;;;;;;;;;5055256;28;19917;-81
2022/08/30 07:50:35;;;;;;;;;;;;;;;;;;5055044;28;19915;-81
2022/08/30 07:53:01;;;;;;;;;;;;;;;;;;5054856;28;19912;-81
2022/08/30 07:55:26;;;;;;;;;;;;;;;;;;5054591;28;20012;-80
2022/08/30 07:57:52;;;;;;;;;;;;;;;;;;5036933;28;20371;-80
2022/08/30 08:00:17;;;;;;;;;;;;;;;;;;5054639;28;20389;-81
2022/08/30 08:02:42;;;;;;;;;;;;;;;;;;5054516;28;19913;-80
2022/08/30 08:05:08;;;;;;;;;;;;;;;;;;5037054;28;19917;-80
2022/08/30 08:07:33;;;;;;;;;;;;;;;;;;5054667;28;19917;-79
2022/08/30 08:09:58;;;;;;;;;;;;;;;;;;5054415;28;20394;-79
2022/08/30 08:12:24;;;;;;;;;;;;;;;;;;5054431;28;19912;-79
2022/08/30 08:14:49;;;;;;;;;;;;;;;;;;5054305;28;19913;-79
2022/08/30 08:17:14;;;;;;;;;;;;;;;;;;5054328;28;19913;-81
2022/08/30 08:19:40;;;;;;;;;;;;;;;;;;5036528;28;19912;-80
2022/08/30 08:22:05;;;;;;;;;;;;;;;;;;5036591;28;19966;-80
2022/08/30 08:24:30;;;;;;;;;;;;;;;;;;5054339;28;19952;-80
2022/08/30 08:26:56;;;;;;;;;;;;;;;;;;5036683;28;20380;-80
2022/08/30 08:29:21;;;;;;;;;;;;;;;;;;5036721;28;20445;-80
2022/08/30 08:31:46;;;;;;;;;;;;;;;;;;5054334;28;19913;-80
2022/08/30 08:34:12;;;;;;;;;;;;;;;;;;5053881;28;19913;-80
2022/08/30 08:36:37;;;;;;;;;;;;;;;;;;5054025;28;19913;-80
2022/08/30 08:39:02;;;;;;;;;;;;;;;;;;5054049;28;20376;-79
2022/08/30 08:41:28;;;;;;;;;;;;;;;;;;5054001;28;19913;-80
2022/08/30 08:43:53;;;;;;;;;;;;;;;;;;5053713;28;19969;-80
2022/08/30 08:46:19;;;;;;;;;;;;;;;;;;5053860;28;19921;-80
2022/08/30 08:49:10;;;;;;;;;;;;;;;;;;5053862;28;20047;-80
2022/08/30 08:54:19;;;;;;;;;;;;;;;;;;5053700;28;19913;-81
2022/08/30 08:56:45;;;;;;;;;;;;;;;;;;5053815;28;20284;-80
2022/08/30 08:59:10;;;;;;;;;;;;;;;;;;5053665;28;19913;-82
2022/08/30 09:01:37;;;;;;;;;;;;;;;;;;5035743;28;19919;-81
2022/08/30 09:04:03;;;;;;;;;;;;;;;;;;5010367;28;19920;-81
2022/08/30 09:06:28;;;;;;;;;;;;;;;;;;5053899;28;20453;-82
2022/08/30 09:08:53;;;;;;;;;;;;;;;;;;5035898;28;19909;-81
2022/08/30 09:11:19;;;;;;;;;;;;;;;;;;5036439;28;20368;-75
2022/08/30 09:13:44;;;;;;;;;;;;;;;;;;5035527;28;19954;-75
2022/08/30 09:16:09;;;;;;;;;;;;;;;;;;5053277;28;19912;-76
2022/08/30 09:18:35;;;;;;;;;;;;;;;;;;5035257;28;19966;-75
2022/08/30 09:21:01;;;;;;;;;;;;;;;;;;5035359;28;19963;-77
2022/08/30 09:23:26;;;;;;;;;;;;;;;;;;5034333;28;19931;-75
2022/08/30 09:25:52;;;;;;;;;;;;;;;;;;5053035;28;19913;-76
2022/08/30 09:28:17;;;;;;;;;;;;;;;;;;5035481;28;20008;-75
2022/08/30 09:30:47;;;;;;;;;;;;;;;;;;5053188;28;19990;-76
2022/08/30 09:33:13;;;;;;;;;;;;;;;;;;5035260;28;20327;-75
2022/08/30 09:35:39;;;;;;;;;;;;;;;;;;5053792;28;19913;-76
2022/08/30 09:38:04;;;;;;;;;;;;;;;;;;5047586;28;19913;-76
2022/08/30 09:40:30;;;;;;;;;;;;;;;;;;5053301;28;19919;-75
2022/08/30 09:42:56;;;;;;;;;;;;;;;;;;5051701;28;19921;-75
2022/08/30 09:45:42;;;;;;;;;;;;;;;;;;5018761;28;19912;-76
2022/08/30 09:48:07;;;;;;;;;;;;;;;;;;5052159;28;20416;-76
2022/08/30 09:50:32;;;;;;;;;;;;;;;;;;5052514;28;20018;-75
2022/08/30 09:52:57;;;;;;;;;;;;;;;;;;5034638;28;20007;-75
2022/08/30 09:55:23;;;;;;;;;;;;;;;;;;5046530;28;20555;-75
2022/08/30 09:57:51;;;;;;;;;;;;;;;;;;5034695;28;19916;-75
2022/08/30 10:00:16;;;;;;;;;;;;;;;;;;5034680;28;20030;-75
2022/08/30 10:02:42;;;;;;;;;;;;;;;;;;5034333;28;19996;-75
2022/08/30 10:05:07;;;;;;;;;;;;;;;;;;5052015;28;20336;-75
2022/08/30 10:07:33;;;;;;;;;;;;;;;;;;5052474;23;19947;-74
2022/08/30 10:09:58;;;;;;;;;;;;;;;;;;5037840;28;20007;-72
2022/08/30 10:12:23;;;;;;;;;;;;;;;;;;5044604;28;19965;-75
2022/08/30 10:14:49;;;;;;;;;;;;;;;;;;5052647;28;19932;-74
2022/08/30 10:17:14;;;;;;;;;;;;;;;;;;5052167;28;20390;-75
2022/08/30 10:19:40;;;;;;;;;;;;;;;;;;5052297;28;19941;-74
2022/08/30 10:22:05;;;;;;;;;;;;;;;;;;5034888;28;19995;-75
2022/08/30 10:24:31;;;;;;;;;;;;;;;;;;5033904;28;19924;-74
2022/08/30 10:26:56;;;;;;;;;;;;;;;;;;5052369;28;20455;-73
2022/08/30 10:29:22;;;;;;;;;;;;;;;;;;5055592;28;20287;-73
2022/08/30 10:31:47;;;;;;;;;;;;;;;;;;5051941;28;20334;-74
2022/08/30 10:34:13;;;;;;;;;;;;;;;;;;5051856;28;19909;-73
2022/08/30 10:36:38;;;;;;;;;;;;;;;;;;5051874;28;19920;-74
2022/08/30 10:39:03;;;;;;;;;;;;;;;;;;5034135;28;19912;-74
2022/08/30 10:41:29;;;;;;;;;;;;;;;;;;5050645;28;19962;-74
2022/08/30 10:43:54;;;;;;;;;;;;;;;;;;5051776;28;19942;-75
2022/08/30 10:46:19;;;;;;;;;;;;;;;;;;5061341;28;20003;-73
2022/08/30 10:48:45;;;;;;;;;;;;;;;;;;5071953;28;19912;-73
2022/08/30 10:51:10;;;;;;;;;;;;;;;;;;5072018;28;20261;-72
2022/08/30 10:53:36;;;;;;;;;;;;;;;;;;5071708;28;20003;-71
2022/08/30 10:56:01;;;;;;;;;;;;;;;;;;5037494;28;20601;-74
2022/08/30 10:58:27;;;;;;;;;;;;;;;;;;5071953;28;20384;-74
2022/08/30 11:00:52;;;;;;;;;;;;;;;;;;5072156;28;20035;-73
2022/08/30 11:03:18;;;;;;;;;;;;;;;;;;5037168;28;19937;-73
2022/08/30 11:05:44;;;;;;;;;;;;;;;;;;5033865;28;19913;-74
2022/08/30 11:08:09;;;;;;;;;;;;;;;;;;5033748;28;20390;-74
2022/08/30 11:10:34;;;;;;;;;;;;;;;;;;5051456;28;19916;-74
2022/08/30 11:13:00;;;;;;;;;;;;;;;;;;5050110;28;19913;-72
2022/08/30 11:15:25;;;;;;;;;;;;;;;;;;5051487;28;19921;-74
2022/08/30 11:17:50;;;;;;;;;;;;;;;;;;5052063;28;20388;-74
2022/08/30 11:20:16;;;;;;;;;;;;;;;;;;5068376;28;19947;-74
2022/08/30 11:22:41;;;;;;;;;;;;;;;;;;5036622;28;19952;-74
2022/08/30 11:25:06;;;;;;;;;;;;;;;;;;5071807;28;19913;-73
2022/08/30 11:27:32;;;;;;;;;;;;;;;;;;5053474;28;19912;-74
2022/08/30 11:29:57;;;;;;;;;;;;;;;;;;5053385;28;20489;-74
2022/08/30 11:32:22;;;;;;;;;;;;;;;;;;5052911;28;20390;-72
2022/08/30 11:34:48;;;;;;;;;;;;;;;;;;5071162;28;20441;-74
2022/08/30 11:37:14;;;;;;;;;;;;;;;;;;5059187;28;19920;-74
2022/08/30 11:39:39;;;;;;;;;;;;;;;;;;5033147;28;19935;-74
2022/08/30 11:42:04;;;;;;;;;;;;;;;;;;5033031;28;19920;-74
2022/08/30 11:44:30;;;;;;;;;;;;;;;;;;5050624;28;19913;-72
2022/08/30 11:46:57;;;;;;;;;;;;;;;;;;5053903;28;19999;-73
2022/08/30 11:49:22;;;;;;;;;;;;;;;;;;5054834;28;19917;-74
2022/08/30 11:51:47;;;;;;;;;;;;;;;;;;5055987;28;19912;-74
2022/08/30 11:54:13;;;;;;;;;;;;;;;;;;5072967;28;19913;-73
2022/08/30 11:56:38;;;;;;;;;;;;;;;;;;5074837;28;19913;-72
2022/08/30 11:59:03;;;;;;;;;;;;;;;;;;5056865;28;19920;-74
2022/08/30 12:01:29;;;;;;;;;;;;;;;;;;5074729;28;19920;-73
2022/08/30 12:03:54;;;;;;;;;;;;;;;;;;5023252;28;19926;-74
2022/08/30 12:06:20;;;;;;;;;;;;;;;;;;5075815;28;20287;-74
2022/08/30 12:08:45;;;;;;;;;;;;;;;;;;5035392;28;20340;-74
2022/08/30 12:11:10;;;;;;;;;;;;;;;;;;5036692;28;20351;-73
2022/08/30 12:13:36;;;;;;;;;;;;;;;;;;5053993;28;19913;-74
2022/08/30 12:16:01;;;;;;;;;;;;;;;;;;5053957;28;20210;-73
2022/08/30 12:18:26;;;;;;;;;;;;;;;;;;5036445;28;20000;-75
2022/08/30 12:20:52;;;;;;;;;;;;;;;;;;5036344;28;19920;-75
2022/08/30 12:23:17;;;;;;;;;;;;;;;;;;5053604;28;19923;-75
2022/08/30 12:25:42;;;;;;;;;;;;;;;;;;5055015;28;20444;-75
2022/08/30 12:28:08;;;;;;;;;;;;;;;;;;5035619;28;20279;-74
2022/08/30 12:30:37;;;;;;;;;;;;;;;;;;5053619;28;20340;-75
2022/08/30 12:33:02;;;;;;;;;;;;;;;;;;5053415;28;19944;-74
2022/08/30 12:35:28;;;;;;;;;;;;;;;;;;5036065;28;20383;-74
2022/08/30 12:37:53;;;;;;;;;;;;;;;;;;5035548;28;20387;-75
2022/08/30 12:40:19;;;;;;;;;;;;;;;;;;5053174;28;20380;-73
2022/08/30 12:42:44;;;;;;;;;;;;;;;;;;5035415;28;19913;-74
2022/08/30 12:45:10;;;;;;;;;;;;;;;;;;5057933;28;20000;-75
2022/08/30 12:47:35;;;;;;;;;;;;;;;;;;5073500;28;19912;-74
2022/08/30 12:50:00;;;;;;;;;;;;;;;;;;5055499;28;19920;-75
2022/08/30 12:52:27;;;;;;;;;;;;;;;;;;5073448;28;20363;-73
2022/08/30 12:54:52;;;;;;;;;;;;;;;;;;5038766;28;20010;-73
2022/08/30 12:57:18;;;;;;;;;;;;;;;;;;5073214;28;20382;-73
2022/08/30 12:59:45;;;;;;;;;;;;;;;;;;5053282;28;19916;-73
2022/08/30 13:02:11;;;;;;;;;;;;;;;;;;5073331;28;19982;-74
2022/08/30 13:04:37;;;;;;;;;;;;;;;;;;5073132;28;19916;-75
2022/08/30 13:07:03;;;;;;;;;;;;;;;;;;5055123;28;19912;-75
2022/08/30 13:09:28;;;;;;;;;;;;;;;;;;5073241;28;19953;-75
2022/08/30 13:11:54;;;;;;;;;;;;;;;;;;5072952;28;20387;-74
2022/08/30 13:14:19;;;;;;;;;;;;;;;;;;5054827;28;19912;-74
2022/08/30 13:16:44;;;;;;;;;;;;;;;;;;5038380;28;20033;-74
2022/08/30 13:19:10;;;;;;;;;;;;;;;;;;5034860;28;19913;-74
2022/08/30 13:21:35;;;;;;;;;;;;;;;;;;5052595;28;19913;-75
2022/08/30 13:24:00;;;;;;;;;;;;;;;;;;5052581;28;19927;-74
2022/08/30 13:26:26;;;;;;;;;;;;;;;;;;5052950;28;19917;-74
2022/08/30 13:28:51;;;;;;;;;;;;;;;;;;5052831;28;20020;-74
2022/08/30 13:31:16;;;;;;;;;;;;;;;;;;5035016;28;19913;-74
2022/08/30 13:33:44;;;;;;;;;;;;;;;;;;5038163;28;19913;-75
2022/08/30 13:36:10;;;;;;;;;;;;;;;;;;5052862;28;19913;-73
2022/08/30 13:38:35;;;;;;;;;;;;;;;;;;5034768;28;19999;-74
2022/08/30 13:41:00;;;;;;;;;;;;;;;;;;5052934;28;20257;-75
2022/08/30 13:43:26;;;;;;;;;;;;;;;;;;5052316;28;19965;-74
2022/08/30 13:45:51;;;;;;;;;;;;;;;;;;5052833;28;19924;-73
2022/08/30 13:48:17;;;;;;;;;;;;;;;;;;5055960;28;19919;-73
2022/08/30 13:50:42;;;;;;;;;;;;;;;;;;5072296;28;20002;-75
2022/08/30 13:53:07;;;;;;;;;;;;;;;;;;5072009;28;19920;-74
2022/08/30 13:55:33;;;;;;;;;;;;;;;;;;5053982;28;19987;-73
2022/08/30 13:57:58;;;;;;;;;;;;;;;;;;5071550;28;19919;-72
2022/08/30 14:00:24;;;;;;;;;;;;;;;;;;5054205;28;20390;-72
2022/08/30 14:02:51;;;;;;;;;;;;;;;;;;5072088;28;19912;-74
2022/08/30 14:05:16;;;;;;;;;;;;;;;;;;5064365;28;19919;-73
2022/08/30 14:07:42;;;;;;;;;;;;;;;;;;5033836;28;20303;-74
2022/08/30 14:10:07;;;;;;;;;;;;;;;;;;5033787;28;20348;-74
2022/08/30 14:12:33;;;;;;;;;;;;;;;;;;5033683;28;19966;-75
2022/08/30 14:15:00;;;;;;;;;;;;;;;;;;5050549;28;20379;-74
2022/08/30 14:17:29;;;;;;;;;;;;;;;;;;5034170;28;19935;-75
2022/08/30 14:19:54;;;;;;;;;;;;;;;;;;5051660;28;19913;-74
2022/08/30 14:22:19;;;;;;;;;;;;;;;;;;5061101;28;20421;-74
2022/08/30 14:24:45;;;;;;;;;;;;;;;;;;5053881;28;20455;-74
2022/08/30 14:27:10;;;;;;;;;;;;;;;;;;5071624;28;19977;-74
2022/08/30 14:29:35;;;;;;;;;;;;;;;;;;5072678;28;19997;-75
2022/08/30 14:32:01;;;;;;;;;;;;;;;;;;5072197;28;20517;-73
2022/08/30 14:34:26;;;;;;;;;;;;;;;;;;5053389;28;20287;-76
2022/08/30 14:36:51;;;;;;;;;;;;;;;;;;5053470;28;20340;-75
2022/08/30 14:39:17;;;;;;;;;;;;;;;;;;5067969;28;19959;-74
2022/08/30 14:41:48;;;;;;;;;;;;;;;;;;5071994;28;20433;-75
2022/08/30 14:44:14;;;;;;;;;;;;;;;;;;5036858;28;19955;-74
2022/08/30 14:46:39;;;;;;;;;;;;;;;;;;5071629;28;19909;-74
2022/08/30 14:49:04;;;;;;;;;;;;;;;;;;5053961;28;19913;-74
2022/08/30 14:51:30;;;;;;;;;;;;;;;;;;5071874;28;20387;-75
2022/08/30 14:53:55;;;;;;;;;;;;;;;;;;5053601;28;19916;-75
2022/08/30 14:56:21;;;;;;;;;;;;;;;;;;5021761;28;20443;-74
2022/08/30 14:58:46;;;;;;;;;;;;;;;;;;5051572;28;20309;-75
2022/08/30 15:01:11;;;;;;;;;;;;;;;;;;5051425;28;19924;-74
2022/08/30 15:03:37;;;;;;;;;;;;;;;;;;5051235;28;20239;-74
2022/08/30 15:06:02;;;;;;;;;;;;;;;;;;5033609;28;19909;-74
2022/08/30 15:08:27;;;;;;;;;;;;;;;;;;5049932;28;20384;-75
2022/08/30 15:10:53;;;;;;;;;;;;;;;;;;5034409;28;20390;-74
2022/08/30 15:13:18;;;;;;;;;;;;;;;;;;5070442;28;20003;-74
2022/08/30 15:15:44;;;;;;;;;;;;;;;;;;5053038;28;20370;-75
2022/08/30 15:18:09;;;;;;;;;;;;;;;;;;5071186;28;20386;-75
2022/08/30 15:20:34;;;;;;;;;;;;;;;;;;5054052;28;19913;-75
2022/08/30 15:23:00;;;;;;;;;;;;;;;;;;5075223;28;19912;-74
2022/08/30 15:25:25;;;;;;;;;;;;;;;;;;5057246;28;20350;-74
2022/08/30 15:27:50;;;;;;;;;;;;;;;;;;5057457;28;20352;-74
2022/08/30 15:30:16;;;;;;;;;;;;;;;;;;5052882;28;19921;-73
2022/08/30 15:32:41;;;;;;;;;;;;;;;;;;5075316;28;19920;-75
2022/08/30 15:35:07;;;;;;;;;;;;;;;;;;5057319;28;19912;-74
2022/08/30 15:37:32;;;;;;;;;;;;;;;;;;5056974;28;20007;-74
2022/08/30 15:39:57;;;;;;;;;;;;;;;;;;5074602;28;20023;-74
2022/08/30 15:42:23;;;;;;;;;;;;;;;;;;5040053;28;19995;-74
2022/08/30 15:44:48;;;;;;;;;;;;;;;;;;5057039;28;20431;-75
2022/08/30 15:47:13;;;;;;;;;;;;;;;;;;5037931;28;20314;-75
2022/08/30 15:49:39;;;;;;;;;;;;;;;;;;5020476;28;20292;-75
2022/08/30 15:52:04;;;;;;;;;;;;;;;;;;5053038;28;19913;-74
2022/08/30 15:54:30;;;;;;;;;;;;;;;;;;5054328;28;19960;-73
2022/08/30 15:56:58;;;;;;;;;;;;;;;;;;5036270;28;19913;-74
2022/08/30 15:59:24;;;;;;;;;;;;;;;;;;5054359;28;19912;-73
2022/08/30 16:01:49;;;;;;;;;;;;;;;;;;5036467;28;19966;-75
2022/08/30 16:04:18;;;;;;;;;;;;;;;;;;5054424;28;19979;-74
2022/08/30 16:06:44;;;;;;;;;;;;;;;;;;5068833;28;19920;-74
2022/08/30 16:09:09;;;;;;;;;;;;;;;;;;5074030;28;19923;-74
2022/08/30 16:11:34;;;;;;;;;;;;;;;;;;5074227;28;19916;-75
2022/08/30 16:14:00;;;;;;;;;;;;;;;;;;5074292;28;20315;-76
2022/08/30 16:16:25;;;;;;;;;;;;;;;;;;5074492;28;20406;-74
2022/08/30 16:18:50;;;;;;;;;;;;;;;;;;5074052;28;20007;-75
2022/08/30 16:21:16;;;;;;;;;;;;;;;;;;5056682;28;19948;-75
2022/08/30 16:23:41;;;;;;;;;;;;;;;;;;5065013;28;20448;-74
2022/08/30 16:26:07;;;;;;;;;;;;;;;;;;5054371;28;19913;-75
2022/08/30 16:28:32;;;;;;;;;;;;;;;;;;5054656;28;20303;-75
2022/08/30 16:30:57;;;;;;;;;;;;;;;;;;5035935;28;20006;-75
2022/08/30 16:33:23;;;;;;;;;;;;;;;;;;5035795;28;20241;-75
2022/08/30 16:35:48;;;;;;;;;;;;;;;;;;5062335;28;19932;-75
2022/08/30 16:38:13;;;;;;;;;;;;;;;;;;5074121;28;19917;-78